D/T METAR WX W/DIR W/SPE G/SPE TEMP DEWP
19/03/19 19:50 EGXE 191950Z AUTO 25009KT 9999 BKN017/// 10/07 Q1025 WSW (250°) 10.4mph 10°C 7°C
19/03/19 18:50 EGXE 191850Z AUTO 26006KT 9999 FEW018/// 10/06 Q1025 W (260°) 6.9mph 10°C 6°C
19/03/19 17:50 EGXE 191750Z AUTO 25011KT 9999 FEW020/// BKN050/// 11/06 Q1024 WSW (250°) 12.7mph 11°C 6°C
19/03/19 16:50 EGXE 191650Z AUTO 24016KT 9999 FEW023/// BKN045/// 11/07 Q1024 WSW (240°) 18.4mph 11°C 7°C
19/03/19 15:50 EGXE 191550Z AUTO 24012KT 9999 BKN024/// BKN070/// 11/06 Q1023 WSW (240°) 13.8mph 11°C 6°C
19/03/19 14:50 EGXE 191450Z 23015KT 9999 BKN027 12/06 Q1023 BLU NOSIG SW (230°) 17.3mph 12°C 6°C
19/03/19 13:50 EGXE 191350Z 22012KT 9999 BKN028 BKN060 12/06 Q1023 BLU TEMPO SCT020 WHT SW (220°) 13.8mph 12°C 6°C
19/03/19 12:50 EGXE 191250Z 24013KT 9999 FEW024 BKN026 BKN250 12/06 Q1024 BLU TEMPO SCT024 WHT WSW (240°) 15.0mph 12°C 6°C
19/03/19 11:50 EGXE 191150Z 23010KT 9999 BKN020 11/07 Q1024 WHT TEMPO FEW020 BLU SW (230°) 11.5mph 11°C 7°C
19/03/19 10:50 EGXE 191050Z 22010KT 9999 FEW016 BKN023 12/07 Q1024 WHT TEMPO FEW023 BLU SW (220°) 11.5mph 12°C 7°C
19/03/19 09:50 EGXE 190950Z 20010KT 9999 FEW016 SCT070 11/06 Q1024 BLU TEMPO SCT016 WHT SSW (200°) 11.5mph 11°C 6°C
19/03/19 08:50 EGXE 190850Z 13006KT 9999 FEW030 BKN050 08/06 Q1024 BLU NOSIG SE (130°) 6.9mph 8°C 6°C
19/03/19 07:50 EGXE 190750Z 14005KT 9999 FEW035 BKN045 06/05 Q1023 BLU NOSIG SE (140°) 5.8mph 6°C 5°C
19/03/19 06:50 EGXE 190650Z 13004KT 9999 BKN035 06/05 Q1023 BLU SE (130°) 4.6mph 6°C 5°C
19/03/19 05:50 EGXE 190550Z AUTO 17003KT 6000 HZ SCT035/// 03/02 Q1023 HZ S (170°) 3.5mph 3°C 2°C
19/03/19 04:50 EGXE 190450Z AUTO 19004KT 9999 FEW029/// BKN034/// 07/05 Q1023 S (190°) 4.6mph 7°C 5°C
19/03/19 03:50 EGXE 190350Z AUTO 24003KT 9999 BKN020/// BKN036/// 06/05 Q1023 WSW (240°) 3.5mph 6°C 5°C
19/03/19 02:50 EGXE 190250Z AUTO 14002KT 9999 BKN031/// SCT039/// 07/05 Q1022 SE (140°) 2.3mph 7°C 5°C
19/03/19 01:50 EGXE 190150Z AUTO 24004KT 9999 BKN028/// BKN036/// 07/04 Q1022 WSW (240°) 4.6mph 7°C 4°C
19/03/19 00:50 EGXE 190050Z AUTO 24002KT 9999 OVC029/// 06/04 Q1022 WSW (240°) 2.3mph 6°C 4°C
18/03/19 23:50 EGXE 182350Z AUTO 20004KT 9999 OVC029/// 07/05 Q1022 SSW (200°) 4.6mph 7°C 5°C
18/03/19 22:50 EGXE 182250Z AUTO 24004KT 9999 OVC025/// 07/05 Q1022 WSW (240°) 4.6mph 7°C 5°C
18/03/19 21:50 EGXE 182150Z AUTO 21004KT 9999 BKN025/// BKN032/// 07/05 Q1021 SSW (210°) 4.6mph 7°C 5°C
18/03/19 20:50 EGXE 182050Z AUTO 22006KT 9999 FEW023/// BKN029/// 07/05 Q1021 SW (220°) 6.9mph 7°C 5°C
18/03/19 19:50 EGXE 181950Z AUTO 23004KT 9999 OVC028/// 07/04 Q1021 SW (230°) 4.6mph 7°C 4°C
18/03/19 18:50 EGXE 181850Z AUTO 25005KT 9999 BKN029/// 08/04 Q1020 WSW (250°) 5.8mph 8°C 4°C
18/03/19 17:50 EGXE 181750Z 25005KT 9999 BKN035 08/03 Q1020 BLU WSW (250°) 5.8mph 8°C 3°C
18/03/19 16:50 EGXE 181650Z 25006KT 9999 BKN040 09/03 Q1019 BLU NOSIG WSW (250°) 6.9mph 9°C 3°C
18/03/19 15:50 EGXE 181550Z 24009KT 9999 SCT035 09/03 Q1018 BLU NOSIG WSW (240°) 10.4mph 9°C 3°C
18/03/19 14:50 EGXE 181450Z 24010KT 9999 SCT035 09/02 Q1018 BLU NOSIG WSW (240°) 11.5mph 9°C 2°C
18/03/19 13:50 EGXE 181350Z 26010KT 9999 SCT030 SCT110 11/03 Q1018 BLU NOSIG W (260°) 11.5mph 11°C 3°C
18/03/19 12:50 EGXE 181250Z 30007KT 9999 SCT032 SCT200 09/03 Q1018 BLU NOSIG WNW (300°) 8.1mph 9°C 3°C
18/03/19 11:50 EGXE 181150Z 26010KT 9999 -SHRA SCT030 09/02 Q1018 BLU NOSIG -SHRA W (260°) 11.5mph 9°C 2°C
18/03/19 10:50 EGXE 181050Z 27010KT 9999 SCT025 10/03 Q1018 BLU NOSIG W (270°) 11.5mph 10°C 3°C
18/03/19 09:50 EGXE 180950Z 27011KT 9999 FEW024 09/03 Q1017 BLU NOSIG W (270°) 12.7mph 9°C 3°C
18/03/19 08:50 EGXE 180850Z 26006KT 9999 FEW040 SCT200 07/02 Q1017 BLU NOSIG W (260°) 6.9mph 7°C 2°C
18/03/19 07:50 EGXE 180750Z 21002KT 9999 FEW040 SCT140 04/01 Q1016 BLU NOSIG SSW (210°) 2.3mph 4°C 1°C
18/03/19 06:50 EGXE 180650Z 31004KT 9999 FEW040 02/M01 Q1016 BLU NW (310°) 4.6mph 2°C -1°C
18/03/19 05:50 EGXE 180550Z AUTO 18002KT 9999 BKN150/// BKN240/// 03/M00 Q1015 S (180°) 2.3mph 3°C 0°C
18/03/19 04:50 EGXE 180450Z AUTO 27006KT 9999 SCT037/// BKN150/// 03/M01 Q1015 W (270°) 6.9mph 3°C -1°C
18/03/19 03:50 EGXE 180350Z AUTO 26010KT 9999 SCT042/// BKN150/// BKN200/// 03/M00 Q1014 W (260°) 11.5mph 3°C 0°C
18/03/19 02:50 EGXE 180250Z AUTO 28006KT 9999 BKN210/// 02/M01 Q1014 W (280°) 6.9mph 2°C -1°C
18/03/19 01:50 EGXE 180150Z AUTO 28008KT 9999 BKN049/// 03/M00 Q1014 W (280°) 9.2mph 3°C 0°C
18/03/19 00:50 EGXE 180050Z AUTO 28010KT 9999 SCT050/// 04/01 Q1013 W (280°) 11.5mph 4°C 1°C
17/03/19 23:50 EGXE 172350Z AUTO 27010KT 9999 BKN220/// 04/00 Q1012 W (270°) 11.5mph 4°C 0°C
17/03/19 22:50 EGXE 172250Z AUTO 28010KT 9999 NCD 03/00 Q1011 W (280°) 11.5mph 3°C 0°C
17/03/19 21:50 EGXE 172150Z AUTO 27006KT 9999 SCT045/// 03/M01 Q1010 W (270°) 6.9mph 3°C -1°C
17/03/19 20:50 EGXE 172050Z AUTO 29004KT 9999 FEW050/// 03/M01 Q1009 WNW (290°) 4.6mph 3°C -1°C
17/03/19 19:50 EGXE 171950Z AUTO 31012KT 9999 FEW070/// 05/M00 Q1008 NW (310°) 13.8mph 5°C 0°C
17/03/19 18:50 EGXE 171850Z AUTO 29010KT 9999 FEW060/// 06/02 Q1007 WNW (290°) 11.5mph 6°C 2°C
17/03/19 17:50 EGXE 171750Z AUTO 29013KT 9999 SCT060/// 07/02 Q1005 RERA WNW (290°) 15.0mph 7°C 2°C
17/03/19 16:50 EGXE 171650Z AUTO 28018KT 9999 SCT070/// SCT110/// 09/02 Q1003 W (280°) 20.7mph 9°C 2°C
17/03/19 15:50 EGXE 171550Z AUTO 27016KT 9999 SCT039/// 10/02 Q1002 W (270°) 18.4mph 10°C 2°C
17/03/19 14:50 EGXE 171450Z AUTO 27018G29KT 9999 NCD 09/01 Q1001 W (270°) 20.7mph 33.4mph 9°C 1°C
17/03/19 13:50 EGXE 171350Z AUTO 28019KT 9999 NCD 09/M01 Q1000 W (280°) 21.9mph 9°C -1°C
17/03/19 12:50 EGXE 171250Z AUTO 26019G29KT 9999 SCT037/// SCT042/// 08/00 Q1000 W (260°) 21.9mph 33.4mph 8°C 0°C
17/03/19 11:50 EGXE 171150Z AUTO 26018KT 9999 SCT031/// 07/01 Q0999 W (260°) 20.7mph 7°C 1°C
17/03/19 10:50 EGXE 171050Z AUTO 26016KT 9999 SCT032/// 07/00 Q0999 W (260°) 18.4mph 7°C 0°C
17/03/19 09:50 EGXE 170950Z AUTO 25014KT 9999 BKN027/// 05/01 Q0998 WSW (250°) 16.1mph 5°C 1°C
17/03/19 08:50 EGXE 170850Z AUTO 27012KT 9999 NCD 05/01 Q0997 W (270°) 13.8mph 5°C 1°C
17/03/19 07:50 EGXE 170750Z AUTO 25005KT 9999 FEW037/// 04/00 Q0996 WSW (250°) 5.8mph 4°C 0°C
17/03/19 06:50 EGXE 170650Z AUTO 26013KT 9999 FEW021/// 03/M00 Q0995 W (260°) 15.0mph 3°C 0°C
17/03/19 05:50 EGXE 170550Z AUTO 26007KT 9999 FEW021/// BKN180/// 03/M00 Q0995 W (260°) 8.1mph 3°C 0°C
17/03/19 04:50 EGXE 170450Z AUTO 27008KT 9999 SCT170/// 03/M01 Q0993 W (270°) 9.2mph 3°C -1°C
17/03/19 03:50 EGXE 170350Z AUTO 27004KT 9999 FEW130/// 03/M00 Q0993 W (270°) 4.6mph 3°C 0°C
17/03/19 02:50 EGXE 170250Z AUTO 26005KT 9999 FEW021/// 03/00 Q0993 W (260°) 5.8mph 3°C 0°C
17/03/19 01:50 EGXE 170150Z AUTO 27006KT 9999 NCD 04/00 Q0992 W (270°) 6.9mph 4°C 0°C
17/03/19 00:50 EGXE 170050Z AUTO 24004KT 9999 NCD 03/M01 Q0991 WSW (240°) 4.6mph 3°C -1°C
16/03/19 23:50 EGXE 162350Z AUTO 28006KT 9999 NCD 04/M00 Q0991 W (280°) 6.9mph 4°C 0°C
16/03/19 22:50 EGXE 162250Z AUTO 06004KT 9999 NCD 04/00 Q0990 ENE (60°) 4.6mph 4°C 0°C
16/03/19 21:50 EGXE 162150Z AUTO 27014KT 9999 FEW250/// 04/01 Q0989 W (270°) 16.1mph 4°C 1°C
16/03/19 20:50 EGXE 162050Z AUTO 28015KT 9999 OVC240/// 05/01 Q0988 W (280°) 17.3mph 5°C 1°C
16/03/19 19:50 EGXE 161950Z AUTO 26020G32KT 9999 FEW170/// SCT210/// 05/01 Q0987 W (260°) 23.0mph 36.8mph 5°C 1°C
16/03/19 18:50 EGXE 161850Z AUTO 25019KT 9999 FEW024/// SCT090/// 06/02 Q0986 RERA WSW (250°) 21.9mph 6°C 2°C
16/03/19 17:50 EGXE 161750Z AUTO 24016KT 9999 -RA FEW024/// BKN050/// 08/05 Q0985 -RA WSW (240°) 18.4mph 8°C 5°C
16/03/19 16:50 EGXE 161650Z AUTO 22017KT 9999 -RA FEW033/// BKN050/// 11/08 Q0984 -RA SW (220°) 19.6mph 11°C 8°C
16/03/19 15:50 EGXE 161550Z AUTO 20019KT 9999 -RA FEW018/// BKN021/// 11/09 Q0985 -RA SSW (200°) 21.9mph 11°C 9°C
16/03/19 14:50 EGXE 161450Z AUTO 20018G28KT 9999 -RA SCT017/// SCT070/// 11/09 Q0985 -RA SSW (200°) 20.7mph 32.2mph 11°C 9°C
16/03/19 13:50 EGXE 161350Z AUTO 20018KT 9000 -RA FEW020/// BKN048/// 11/09 Q0987 -RA SSW (200°) 20.7mph 11°C 9°C
16/03/19 12:50 EGXE 161250Z AUTO 21019G30KT 9999 -RA FEW048/// BKN070/// 12/09 Q0988 -RA SSW (210°) 21.9mph 34.5mph 12°C 9°C
16/03/19 11:50 EGXE 161150Z AUTO 20017G27KT 9999 RA OVC070/// 11/09 Q0989 RA SSW (200°) 19.6mph 31.1mph 11°C 9°C
16/03/19 10:50 EGXE 161050Z AUTO 21019G30KT 9999 RA OVC070/// 10/08 Q0989 RA SSW (210°) 21.9mph 34.5mph 10°C 8°C
16/03/19 09:50 EGXE 160950Z AUTO 21019G29KT 9999 -RA BKN060/// 10/08 Q0990 -RA SSW (210°) 21.9mph 33.4mph 10°C 8°C
16/03/19 08:50 EGXE 160850Z AUTO 19007G17KT 9999 RA FEW002/// BKN050/// 09/08 Q0991 RA S (190°) 8.1mph 19.6mph 9°C 8°C
16/03/19 07:50 EGXE 160750Z AUTO 15005KT 4200 RA BKN002/// SCT009/// 05/05 Q0993 RA SSE (150°) 5.8mph 5°C 5°C
16/03/19 06:50 EGXE 160650Z AUTO 15005KT 7000 RA OVC003/// 05/04 Q0994 RA SSE (150°) 5.8mph 5°C 4°C
16/03/19 05:50 EGXE 160550Z AUTO 13006KT 5000 RA BKN003/// SCT009/// 04/04 Q0996 RA SE (130°) 6.9mph 4°C 4°C
16/03/19 04:50 EGXE 160450Z AUTO 10003KT 9999 RA BKN012/// 04/03 Q0998 RA E (100°) 3.5mph 4°C 3°C
16/03/19 03:50 EGXE 160350Z AUTO 15005KT 9999 RA FEW015/// BKN021/// 04/03 Q1000 RA SSE (150°) 5.8mph 4°C 3°C
16/03/19 02:50 EGXE 160250Z AUTO 16005KT 8000 RA BKN016/// 05/03 Q1001 RA SSE (160°) 5.8mph 5°C 3°C
16/03/19 01:50 EGXE 160150Z AUTO 16007KT 9999 BKN045/// 06/03 Q1002 SSE (160°) 8.1mph 6°C 3°C
16/03/19 00:50 EGXE 160050Z AUTO 19005KT 9999 BKN070/// 06/02 Q1003 S (190°) 5.8mph 6°C 2°C
15/03/19 23:50 EGXE 152350Z AUTO 15008KT 9999 SCT035/// BKN160/// 06/01 Q1004 SSE (150°) 9.2mph 6°C 1°C
15/03/19 22:50 EGXE 152250Z AUTO 19008KT 9999 SCT048/// SCT160/// BKN200/// 04/M00 Q1005 S (190°) 9.2mph 4°C 0°C
15/03/19 21:50 EGXE 152150Z AUTO 14003KT 9999 BKN220/// 04/M00 Q1005 SE (140°) 3.5mph 4°C 0°C
15/03/19 20:50 EGXE 152050Z AUTO 25013KT 9999 FEW230/// 06/01 Q1005 WSW (250°) 15.0mph 6°C 1°C
15/03/19 19:50 EGXE 151950Z AUTO 25008KT 9999 FEW050/// 06/01 Q1004 WSW (250°) 9.2mph 6°C 1°C
15/03/19 18:50 EGXE 151850Z AUTO 28012KT 9999 FEW050/// 06/01 Q1004 W (280°) 13.8mph 6°C 1°C
15/03/19 17:50 EGXE 151750Z AUTO 28014KT 9999 NCD 06/01 Q1003 W (280°) 16.1mph 6°C 1°C
15/03/19 16:50 EGXE 151650Z AUTO 27014G26KT 9999 NCD 08/00 Q1002 W (270°) 16.1mph 29.9mph 8°C 0°C
15/03/19 15:50 EGXE 151550Z AUTO 27016KT 9999 FEW050/// 09/02 Q1002 RERA W (270°) 18.4mph 9°C 2°C
15/03/19 14:50 EGXE 151450Z 26026G37KT 9999 FEW030 SCT250 09/02 Q1001 BLU W (260°) 29.9mph 42.6mph 9°C 2°C
15/03/19 13:50 EGXE 151350Z AUTO 26023G36KT 9999 FEW037/// 10/01 Q1000 W (260°) 26.5mph 41.4mph 10°C 1°C
15/03/19 12:50 EGXE 151250Z AUTO 26025G36KT 9999 FEW038/// 09/02 Q1000 RERA W (260°) 28.8mph 41.4mph 9°C 2°C
15/03/19 11:50 EGXE 151150Z 26028KT 9999 FEW032 BKN250 10/02 Q1000 BLU W (260°) 32.2mph 10°C 2°C
15/03/19 10:50 EGXE 151050Z 27025G37KT 9999 FEW030 BKN250 10/03 Q0998 BLU W (270°) 28.8mph 42.6mph 10°C 3°C
15/03/19 09:50 EGXE 150950Z 26026G38KT 9999 FEW030 BKN250 10/02 Q0998 BLU NOSIG W (260°) 29.9mph 43.7mph 10°C 2°C
15/03/19 08:50 EGXE 150850Z 26027G40KT 9999 -SHRA FEW025 SCT250 09/04 Q0997 BLU NOSIG -SHRA W (260°) 31.1mph 46.0mph 9°C 4°C
15/03/19 07:50 EGXE 150750Z 27020G31KT 9999 FEW025 BKN250 10/04 Q0996 BLU BECMG 28026G42KT BLU W (270°) 23.0mph 35.7mph 10°C 4°C
15/03/19 06:50 EGXE 150650Z 26022G33KT 9999 FEW020 BKN250 10/05 Q0995 BLU W (260°) 25.3mph 38.0mph 10°C 5°C
15/03/19 05:50 EGXE 150550Z AUTO 25025G37KT 9999 BKN170/// 11/06 Q0994 WSW (250°) 28.8mph 42.6mph 11°C 6°C
15/03/19 04:50 EGXE 150450Z AUTO 25027G39KT 9999 FEW020/// BKN150/// 11/08 Q0993 WSW (250°) 31.1mph 44.9mph 11°C 8°C
15/03/19 03:50 EGXE 150350Z AUTO 20012G24KT 9999 BKN018/// BKN032/// 10/09 Q0994 SSW (200°) 13.8mph 27.6mph 10°C 9°C
15/03/19 02:50 EGXE 150250Z AUTO 17012KT 9999 FEW007/// BKN013/// 07/06 Q0996 S (170°) 13.8mph 7°C 6°C
15/03/19 01:50 EGXE 150150Z AUTO 18009KT 9999 BKN016/// SCT029/// 07/04 Q0997 S (180°) 10.4mph 7°C 4°C
15/03/19 00:50 EGXE 150050Z AUTO 21010KT 9999 BKN019/// SCT030/// BKN039/// 08/04 Q0999 SSW (210°) 11.5mph 8°C 4°C
14/03/19 23:50 EGXE 142350Z AUTO 24012KT 9999 SCT023/// BKN039/// 08/03 Q1000 RERA WSW (240°) 13.8mph 8°C 3°C
14/03/19 22:50 EGXE 142250Z AUTO 24012KT 9999 -RA SCT025/// BKN032/// BKN038/// 08/04 Q1001 -RA WSW (240°) 13.8mph 8°C 4°C
14/03/19 21:50 EGXE 142150Z AUTO 21007KT 9999 FEW030/// BKN039/// 08/03 Q1001 SSW (210°) 8.1mph 8°C 3°C
14/03/19 20:50 EGXE 142050Z AUTO 23009KT 9999 BKN048/// BKN180/// 07/03 Q1002 SW (230°) 10.4mph 7°C 3°C
14/03/19 19:50 EGXE 141950Z AUTO 24011KT 9999 OVC170/// 08/02 Q1002 WSW (240°) 12.7mph 8°C 2°C
14/03/19 18:50 EGXE 141850Z AUTO 26012KT 9999 BKN200/// 08/02 Q1002 W (260°) 13.8mph 8°C 2°C
14/03/19 17:50 EGXE 141750Z 25012KT CAVOK 08/02 Q1001 BLU WSW (250°) 13.8mph 8°C 2°C
14/03/19 16:50 EGXE 141650Z 27017G28KT 9999 FEW040 09/01 Q1001 BLU BECMG 27012KT W (270°) 19.6mph 32.2mph 9°C 1°C
14/03/19 15:50 EGXE 141550Z 28017KT 9999 SCT040 10/02 Q1000 BLU NOSIG W (280°) 19.6mph 10°C 2°C
14/03/19 14:50 EGXE 141450Z 27018KT 9999 FEW040 11/02 Q0999 BLU NOSIG W (270°) 20.7mph 11°C 2°C
14/03/19 13:50 EGXE 141350Z 28024KT 9999 FEW040 11/02 Q0998 BLU TEMPO 28025G37KT BLU W (280°) 27.6mph 11°C 2°C
14/03/19 12:50 EGXE 141250Z 29022G32KT 9999 FEW039 12/03 Q0997 BLU NOSIG WNW (290°) 25.3mph 36.8mph 12°C 3°C
14/03/19 11:50 EGXE 141150Z 29027G40KT 9999 FEW038 11/02 Q0996 BLU TEMPO 29020G30KT BLU WNW (290°) 31.1mph 46.0mph 11°C 2°C
14/03/19 10:50 EGXE 141050Z 28023KT 9999 FEW036 11/03 Q0995 BLU TEMPO 28025G38KT BLU W (280°) 26.5mph 11°C 3°C
14/03/19 09:50 EGXE 140950Z 28023G34KT 9999 FEW024 11/04 Q0994 BLU NOSIG W (280°) 26.5mph 39.1mph 11°C 4°C
14/03/19 08:50 EGXE 140850Z 28029G40KT 9999 -SHRA FEW018CB SCT100 08/04 Q0993 BLU BECMG 29020G30KT BLU -SHRA W (280°) 33.4mph 46.0mph 8°C 4°C
14/03/19 07:50 EGXE 140750Z 28022G33KT 9999 FEW018 SCT150 09/05 Q0991 BLU NOSIG W (280°) 25.3mph 38.0mph 9°C 5°C
14/03/19 06:50 EGXE 140650Z 26022G33KT 9999 RA FEW018 BKN040 10/07 Q0990 BLU RA W (260°) 25.3mph 38.0mph 10°C 7°C
14/03/19 05:50 EGXE 140550Z 24026G37KT 9999 FEW020 BKN080 10/06 Q0990 BLU WSW (240°) 29.9mph 42.6mph 10°C 6°C
14/03/19 04:50 EGXE 140450Z AUTO 24020G30KT 9999 FEW024/// SCT032/// BKN150/// 09/05 Q0992 WSW (240°) 23.0mph 34.5mph 9°C 5°C
14/03/19 03:50 EGXE 140350Z AUTO 24020G32KT 9999 FEW025/// BKN044/// BKN130/// 09/05 Q0995 WSW (240°) 23.0mph 36.8mph 9°C 5°C
14/03/19 02:50 EGXE 140250Z AUTO 23019KT 9999 FEW026/// BKN120/// 09/04 Q0997 SW (230°) 21.9mph 9°C 4°C
14/03/19 01:50 EGXE 140150Z AUTO 23018KT 9999 FEW027/// BKN039/// BKN090/// 08/04 Q0999 SW (230°) 20.7mph 8°C 4°C
14/03/19 00:50 EGXE 140050Z AUTO 23019KT 9999 FEW024/// SCT038/// BKN150/// 08/04 Q1000 SW (230°) 21.9mph 8°C 4°C
13/03/19 23:50 EGXE 132350Z AUTO 23016KT 9999 FEW027/// SCT039/// BKN170/// 08/04 Q1002 SW (230°) 18.4mph 8°C 4°C
13/03/19 22:50 EGXE 132250Z AUTO 23013KT 9999 BKN100/// BKN180/// 07/03 Q1004 SW (230°) 15.0mph 7°C 3°C
13/03/19 21:50 EGXE 132150Z AUTO 23010KT 9999 SCT022/// BKN080/// 07/03 Q1005 SW (230°) 11.5mph 7°C 3°C
13/03/19 20:50 EGXE 132050Z AUTO 25012KT 9999 SCT025/// OVC100/// 07/03 Q1006 WSW (250°) 13.8mph 7°C 3°C